createdAt,value
2017-09-24T13:31:05.845Z,53.20
2017-09-24T13:33:32.356Z,54.20
2017-09-24T13:35:58.766Z,53.50
2017-09-24T13:38:25.222Z,55.30
2017-09-24T13:40:51.697Z,54.00
2017-09-24T13:43:20.195Z,55.10
2017-09-24T13:45:46.764Z,54.70
2017-09-24T13:48:13.239Z,54.00
2017-09-24T13:50:39.699Z,54.30
2017-09-24T13:53:06.164Z,53.90
2017-09-24T13:55:32.678Z,52.60
2017-09-24T13:57:59.151Z,53.40
2017-09-24T14:00:25.629Z,54.40
2017-09-24T14:02:52.822Z,55.40
2017-09-24T14:05:19.271Z,54.90
2017-09-24T14:07:46.529Z,55.70
2017-09-24T14:10:12.973Z,55.60
2017-09-24T14:12:40.141Z,55.40
2017-09-24T14:15:07.475Z,55.70
2017-09-24T14:17:33.847Z,55.40
2017-09-24T14:20:00.327Z,55.20
2017-09-24T14:22:26.794Z,53.10
2017-09-24T14:24:56.828Z,52.70
2017-09-24T14:27:23.297Z,52.70
2017-09-24T14:29:49.817Z,53.80
2017-09-24T14:32:16.297Z,54.40
2017-09-24T14:34:42.716Z,53.20
2017-09-24T14:37:09.903Z,54.20
2017-09-24T14:39:37.112Z,55.40
2017-09-24T14:42:03.497Z,55.40
2017-09-24T14:44:30.693Z,56.20
2017-09-24T14:46:57.861Z,56.50
2017-09-24T14:49:24.248Z,56.40
2017-09-24T14:51:51.450Z,56.70
2017-09-24T14:54:17.974Z,56.70
2017-09-24T14:56:44.403Z,56.80
2017-09-24T14:59:10.878Z,56.30
2017-09-24T15:01:37.364Z,56.20
2017-09-24T15:04:04.722Z,57.20
2017-09-24T15:06:31.135Z,57.20
2017-09-24T15:08:58.294Z,57.80
2017-09-24T15:11:25.525Z,57.80
2017-09-24T15:13:52.012Z,57.80
2017-09-24T15:16:18.453Z,57.60
2017-09-24T15:18:45.678Z,58.70
2017-09-24T15:21:12.202Z,58.80
2017-09-24T15:23:38.626Z,59.70
2017-09-24T15:26:05.040Z,59.00
2017-09-24T15:28:34.756Z,58.80
2017-09-24T15:31:01.885Z,59.30
2017-09-24T15:33:28.326Z,59.20
2017-09-24T15:35:54.710Z,58.50
2017-09-24T15:38:21.184Z,58.60
2017-09-24T15:40:49.422Z,59.80
2017-09-24T15:43:16.592Z,59.00
2017-09-24T15:45:43.085Z,58.90
2017-09-24T15:48:09.517Z,60.30
2017-09-24T15:50:35.881Z,59.80
2017-09-24T15:53:02.346Z,59.90
2017-09-24T15:55:28.721Z,59.80
2017-09-24T15:57:55.839Z,60.50
2017-09-24T16:00:22.214Z,60.50
2017-09-24T16:02:48.629Z,61.50
2017-09-24T16:05:15.057Z,62.10
2017-09-24T16:07:41.463Z,61.70
2017-09-24T16:10:07.871Z,62.10
2017-09-24T16:12:34.494Z,63.10
2017-09-24T16:15:00.920Z,63.90
2017-09-24T16:17:29.109Z,65.50
2017-09-24T16:19:55.544Z,65.60
2017-09-24T16:22:21.974Z,66.10
2017-09-24T16:24:48.401Z,66.90
2017-09-24T16:27:14.853Z,66.90
2017-09-24T16:29:41.290Z,67.40
2017-09-24T16:32:07.685Z,69.00
2017-09-24T16:34:34.827Z,70.00
2017-09-24T16:37:01.221Z,70.00
2017-09-24T16:39:28.367Z,70.40
2017-09-24T16:41:55.530Z,71.40
2017-09-24T16:44:22.665Z,72.10
2017-09-24T16:46:49.123Z,72.10
2017-09-24T16:49:15.516Z,72.10
2017-09-24T16:51:42.694Z,73.90
2017-09-24T16:54:09.813Z,75.40
2017-09-24T16:56:37.982Z,76.60
2017-09-24T16:59:04.362Z,77.40
2017-09-24T17:01:30.763Z,77.50
2017-09-24T17:03:57.176Z,78.70
2017-09-24T17:06:23.529Z,80.40
2017-09-24T17:08:50.689Z,81.70
2017-09-24T17:11:17.052Z,81.70
2017-09-24T17:13:44.230Z,84.10
2017-09-24T17:16:10.613Z,83.40
2017-09-24T17:18:37.281Z,85.10
2017-09-24T17:21:03.690Z,86.50
2017-09-24T17:23:30.127Z,88.00
2017-09-24T17:25:56.506Z,89.30
2017-09-24T17:28:22.940Z,90.10
2017-09-24T17:30:50.045Z,91.20
2017-09-24T17:33:16.480Z,91.20
2017-09-24T17:35:43.621Z,92.40
2017-09-24T17:38:10.084Z,92.40
2017-09-24T17:40:36.488Z,93.00
2017-09-24T17:43:02.925Z,93.60
2017-09-24T17:45:30.080Z,94.50
2017-09-24T17:47:56.492Z,94.60
2017-09-24T17:50:22.973Z,95.30
2017-09-24T17:52:50.150Z,96.10
2017-09-24T17:55:17.357Z,96.50
2017-09-24T17:57:43.773Z,96.50
2017-09-24T18:00:10.165Z,96.90
2017-09-24T18:02:36.509Z,97.10
2017-09-24T18:05:02.940Z,97.60
2017-09-24T18:07:29.253Z,98.00
2017-09-24T18:09:55.588Z,98.80
2017-09-24T18:12:21.947Z,98.90
2017-09-24T18:14:49.228Z,99.70
2017-09-24T18:17:15.604Z,99.70
2017-09-24T18:19:42.150Z,99.90
2017-09-24T18:22:08.546Z,99.90
2017-09-24T18:24:34.925Z,99.90
2017-09-24T18:27:01.285Z,99.90
2017-09-24T18:29:27.643Z,99.90
2017-09-24T18:31:53.989Z,99.90
2017-09-24T18:34:21.838Z,99.90
2017-09-24T18:36:48.177Z,99.90
2017-09-24T18:39:14.568Z,99.90
2017-09-24T18:41:40.905Z,99.90
2017-09-24T18:44:07.269Z,99.90
2017-09-24T18:46:34.348Z,99.90
2017-09-24T18:49:01.438Z,99.90
2017-09-24T18:51:27.773Z,99.90
2017-09-24T18:53:54.172Z,99.90
2017-09-24T18:56:21.265Z,99.90
2017-09-24T18:58:47.657Z,99.90
2017-09-24T19:01:14.042Z,99.90
2017-09-24T19:03:40.440Z,99.90
2017-09-24T19:06:06.833Z,99.90
2017-09-24T19:08:33.195Z,99.90
2017-09-24T19:10:59.569Z,99.90
2017-09-24T19:13:25.922Z,99.90
2017-09-24T19:15:53.042Z,99.90
2017-09-24T19:18:19.420Z,99.90
2017-09-24T19:20:45.978Z,99.90
2017-09-24T19:23:12.300Z,99.90
2017-09-24T19:25:38.667Z,99.90
2017-09-24T19:28:05.821Z,99.90
2017-09-24T19:30:32.186Z,99.90
2017-09-24T19:32:58.561Z,99.90
2017-09-24T19:35:24.914Z,99.90
2017-09-24T19:37:51.272Z,99.90
2017-09-24T19:40:17.641Z,99.90
2017-09-24T19:42:44.053Z,99.90
2017-09-24T19:45:11.930Z,99.90
2017-09-24T19:47:38.293Z,99.90
2017-09-24T19:50:04.633Z,99.90
2017-09-24T19:52:31.017Z,99.90
2017-09-24T19:54:57.413Z,99.90
2017-09-24T19:57:23.809Z,99.90
2017-09-24T19:59:50.200Z,99.90
2017-09-24T20:02:16.550Z,99.90
2017-09-24T20:04:43.682Z,99.90
2017-09-24T20:07:10.040Z,99.90
2017-09-24T20:09:36.389Z,99.90
2017-09-24T20:12:02.753Z,99.90
2017-09-24T20:14:29.116Z,99.90
2017-09-24T20:16:56.193Z,99.90
2017-09-24T20:19:22.574Z,99.90
2017-09-24T20:21:49.693Z,99.90
2017-09-24T20:24:16.771Z,99.90
2017-09-24T20:26:43.112Z,99.90
2017-09-24T20:29:09.456Z,99.90
2017-09-24T20:31:35.836Z,99.90
2017-09-24T20:34:03.169Z,99.90
2017-09-24T20:36:29.586Z,99.90
2017-09-24T20:38:55.989Z,99.90
2017-09-24T20:41:22.347Z,99.90
2017-09-24T20:43:48.684Z,99.90
2017-09-24T20:46:15.057Z,99.90
2017-09-24T20:48:41.479Z,99.90
2017-09-24T20:51:07.854Z,99.90
2017-09-24T20:53:34.389Z,99.90
2017-09-24T20:56:00.941Z,99.90
2017-09-24T20:58:28.094Z,99.90
2017-09-24T21:00:54.521Z,99.90
2017-09-24T21:03:20.991Z,99.90
2017-09-24T21:05:47.404Z,99.90
2017-09-24T21:08:13.878Z,99.90
2017-09-24T21:10:40.999Z,99.90
2017-09-24T21:13:07.341Z,99.90
2017-09-24T21:15:33.733Z,99.90
2017-09-24T21:18:00.837Z,99.90
2017-09-24T21:20:27.217Z,99.90
2017-09-24T21:22:53.600Z,99.90
2017-09-24T21:25:19.965Z,99.90
2017-09-24T21:27:46.339Z,99.90
2017-09-24T21:30:12.753Z,99.90
2017-09-24T21:32:39.117Z,99.90
2017-09-24T21:35:07.026Z,99.90
2017-09-24T21:37:33.419Z,99.90
2017-09-24T21:39:59.782Z,99.90
2017-09-24T21:42:26.273Z,99.90
2017-09-24T21:44:52.621Z,99.90
2017-09-24T21:47:18.963Z,99.90
2017-09-24T21:49:45.365Z,99.90
2017-09-24T21:52:12.464Z,99.90
2017-09-24T21:54:39.614Z,99.90
2017-09-24T21:57:06.000Z,99.90
2017-09-24T21:59:32.389Z,99.90
2017-09-24T22:01:58.749Z,99.90
2017-09-24T22:04:25.123Z,99.90
2017-09-24T22:06:51.483Z,99.90
2017-09-24T22:09:17.879Z,99.90
2017-09-24T22:11:44.223Z,99.90
2017-09-24T22:14:10.556Z,99.90
2017-09-24T22:16:36.935Z,99.90
2017-09-24T22:19:03.306Z,99.90
2017-09-24T22:21:30.439Z,99.90
2017-09-24T22:23:58.300Z,99.90
2017-09-24T22:26:24.727Z,99.90
2017-09-24T22:28:51.805Z,99.90
2017-09-24T22:31:18.973Z,99.90
2017-09-24T22:33:45.311Z,99.90
2017-09-24T22:36:11.702Z,99.90
2017-09-24T22:38:38.049Z,99.90
2017-09-24T22:41:04.381Z,99.90
2017-09-24T22:43:31.513Z,99.90
2017-09-24T22:45:57.848Z,99.90
2017-09-24T22:48:24.202Z,99.90
2017-09-24T22:50:50.649Z,99.90
2017-09-24T22:53:17.111Z,99.90
2017-09-24T22:55:43.432Z,99.90
2017-09-24T22:58:09.790Z,99.90
2017-09-24T23:00:36.117Z,99.90
2017-09-24T23:03:02.496Z,99.90
2017-09-24T23:05:28.833Z,99.90
2017-09-24T23:07:55.152Z,99.90
2017-09-24T23:10:21.504Z,99.90
2017-09-24T23:12:47.833Z,99.90
2017-09-24T23:15:14.193Z,99.90
2017-09-24T23:17:40.753Z,99.90
2017-09-24T23:20:07.112Z,99.90
2017-09-24T23:22:33.482Z,99.90
2017-09-24T23:25:00.574Z,99.90
2017-09-24T23:27:26.915Z,99.90
2017-09-24T23:29:53.252Z,99.90
2017-09-24T23:32:19.569Z,99.90
2017-09-24T23:34:45.921Z,99.90
2017-09-24T23:37:13.012Z,99.90
2017-09-24T23:39:39.336Z,99.90
2017-09-24T23:42:05.708Z,99.90
2017-09-24T23:44:32.045Z,99.90
2017-09-24T23:46:58.384Z,99.90
2017-09-24T23:49:24.749Z,99.90
2017-09-24T23:51:52.659Z,99.90
2017-09-24T23:54:19.736Z,99.90
2017-09-24T23:56:46.828Z,99.90
2017-09-24T23:59:13.189Z,99.90
